Time;durP1;ratioP1;P1;durP2;ratioP2;P2;SDS_P1;SDS_P2;PMS_P1;PMS_P2;Temp;Humidity;BMP_temperature;BMP_pressure;BME280_temperature;BME280_humidity;BME280_pressure;Samples;Min_cycle;Max_cycle;Signal;HPM_P1;HPM_P2
2023/08/07 00:01:46;;;;;;;5.70;4.63;;;16.10;99.90;;;;;;5010311;28;20066;-46
2023/08/07 00:04:12;;;;;;;9.27;4.68;;;16.20;99.90;;;;;;5009683;28;20024;-47
2023/08/07 00:06:37;;;;;;;6.70;4.25;;;16.20;99.90;;;;;;5010258;28;20037;-48
2023/08/07 00:09:03;;;;;;;8.57;5.07;;;16.20;99.90;;;;;;4992543;28;20034;-46
2023/08/07 00:11:28;;;;;;;6.10;4.70;;;16.20;99.90;;;;;;4992891;28;20508;-47
2023/08/07 00:13:54;;;;;;;8.35;4.63;;;16.10;99.90;;;;;;4992002;28;20042;-46
2023/08/07 00:16:19;;;;;;;8.18;4.38;;;16.10;99.90;;;;;;5012190;28;20029;-48
2023/08/07 00:18:45;;;;;;;7.13;4.75;;;16.10;99.90;;;;;;5014263;28;20022;-47
2023/08/07 00:21:11;;;;;;;9.38;5.40;;;16.10;99.90;;;;;;5014172;28;20427;-47
2023/08/07 00:23:37;;;;;;;8.73;5.03;;;16.10;99.90;;;;;;5013624;28;20026;-47
2023/08/07 00:26:02;;;;;;;7.38;5.43;;;16.10;99.90;;;;;;4996422;28;20072;-46
2023/08/07 00:28:29;;;;;;;7.95;5.20;;;16.10;99.90;;;;;;5014120;28;20037;-48
2023/08/07 00:30:55;;;;;;;6.50;4.90;;;16.00;99.90;;;;;;5013780;28;20033;-47
2023/08/07 00:33:20;;;;;;;9.60;4.97;;;16.10;99.90;;;;;;4995649;28;20021;-47
2023/08/07 00:35:46;;;;;;;8.68;4.65;;;16.00;99.90;;;;;;5013721;28;20029;-48
2023/08/07 00:38:11;;;;;;;12.50;4.90;;;16.00;99.90;;;;;;5013695;28;20025;-46
2023/08/07 00:40:40;;;;;;;8.43;5.40;;;16.00;99.90;;;;;;5013703;28;20029;-47
2023/08/07 00:43:06;;;;;;;7.82;5.55;;;16.00;99.90;;;;;;5013484;28;20076;-48
2023/08/07 00:45:42;;;;;;;8.55;5.53;;;15.90;99.90;;;;;;4996238;28;20033;-47
2023/08/07 00:48:08;;;;;;;9.00;5.32;;;15.90;99.90;;;;;;4996167;28;20066;-46
2023/08/07 00:50:33;;;;;;;9.20;5.57;;;15.90;99.90;;;;;;5013571;28;20068;-46
2023/08/07 00:53:00;;;;;;;9.68;4.75;;;15.80;99.90;;;;;;5013359;28;20026;-46
2023/08/07 00:55:26;;;;;;;8.10;5.43;;;15.80;99.90;;;;;;5013385;28;20092;-47
2023/08/07 00:57:52;;;;;;;6.38;4.80;;;15.80;99.90;;;;;;5013253;28;20440;-47
2023/08/07 01:00:18;;;;;;;6.90;5.10;;;15.80;99.90;;;;;;4995571;28;20481;-47
2023/08/07 01:02:44;;;;;;;11.85;5.40;;;15.80;99.90;;;;;;5013003;28;20591;-46
2023/08/07 01:05:09;;;;;;;11.13;5.70;;;15.80;99.90;;;;;;5012895;28;20093;-47
2023/08/07 01:07:35;;;;;;;9.32;5.60;;;15.80;99.90;;;;;;5013316;28;20030;-49
2023/08/07 01:10:03;;;;;;;9.48;5.30;;;15.80;99.90;;;;;;5013322;28;20022;-48
2023/08/07 01:12:36;;;;;;;9.70;5.00;;;15.70;99.90;;;;;;5013428;28;20037;-46
2023/08/07 01:15:14;;;;;;;12.93;5.97;;;15.70;99.90;;;;;;4996091;28;20113;-47
2023/08/07 01:17:43;;;;;;;7.80;5.72;;;15.80;99.90;;;;;;5013386;28;20032;-47
2023/08/07 01:20:09;;;;;;;8.05;5.88;;;15.70;99.90;;;;;;5013085;28;20022;-49
2023/08/07 01:22:34;;;;;;;8.25;5.53;;;15.70;99.90;;;;;;5012916;28;20109;-46
2023/08/07 01:25:00;;;;;;;9.55;5.53;;;15.60;99.90;;;;;;5013098;28;20101;-46
2023/08/07 01:27:49;;;;;;;7.45;5.30;;;15.60;99.90;;;;;;4993888;28;20068;-47
2023/08/07 01:30:30;;;;;;;8.20;5.10;;;15.50;99.90;;;;;;5012741;28;20036;-46
2023/08/07 01:33:27;;;;;;;9.90;5.72;;;15.50;99.90;;;;;;5012480;28;20463;-48
2023/08/07 01:35:55;;;;;;;10.27;4.47;;;15.50;99.90;;;;;;4968271;28;20036;-49
2023/08/07 01:38:24;;;;;;;7.60;5.07;;;15.40;99.90;;;;;;5012601;28;20116;-49
2023/08/07 01:40:51;;;;;;;8.82;4.97;;;15.40;99.90;;;;;;5012619;28;20026;-47
2023/08/07 01:43:18;;;;;;;10.40;5.38;;;15.30;99.90;;;;;;5011849;28;20477;-47
2023/08/07 01:45:44;;;;;;;8.38;5.00;;;15.30;99.90;;;;;;5012432;28;20096;-46
2023/08/07 01:48:09;;;;;;;6.15;4.80;;;15.30;99.90;;;;;;5012417;28;20432;-46
2023/08/07 01:50:35;;;;;;;6.85;4.40;;;15.30;99.90;;;;;;5012587;28;20053;-45
2023/08/07 01:53:02;;;;;;;7.80;4.13;;;15.20;99.90;;;;;;5012045;28;20040;-46
2023/08/07 01:55:28;;;;;;;7.60;4.38;;;15.30;99.90;;;;;;5004346;28;20108;-48
2023/08/07 01:57:53;;;;;;;5.68;4.35;;;15.30;99.90;;;;;;5012290;28;20114;-47
2023/08/07 02:00:19;;;;;;;5.65;4.05;;;15.20;99.90;;;;;;5011986;28;20494;-45
2023/08/07 02:02:48;;;;;;;8.00;4.18;;;15.20;99.90;;;;;;5011812;28;20022;-46
2023/08/07 02:05:14;;;;;;;5.75;4.32;;;15.20;99.90;;;;;;5011752;28;20185;-47
2023/08/07 02:07:40;;;;;;;8.48;4.20;;;15.20;99.90;;;;;;4994447;28;20026;-46
2023/08/07 02:10:06;;;;;;;9.80;4.63;;;15.10;99.90;;;;;;5012356;28;20480;-45
2023/08/07 02:12:32;;;;;;;7.20;4.85;;;15.10;99.90;;;;;;5011948;28;20030;-46
2023/08/07 02:15:01;;;;;;;8.27;4.60;;;15.10;99.90;;;;;;5011701;28;20036;-48
2023/08/07 02:17:30;;;;;;;10.15;4.18;;;15.10;99.90;;;;;;5011829;28;20110;-47
2023/08/07 02:19:56;;;;;;;8.50;4.68;;;15.10;99.90;;;;;;5012039;28;20018;-47
2023/08/07 02:22:21;;;;;;;8.73;4.72;;;15.10;99.90;;;;;;5011869;28;20338;-46
2023/08/07 02:24:47;;;;;;;7.30;4.30;;;15.10;99.90;;;;;;4993754;28;20025;-47
2023/08/07 02:27:13;;;;;;;10.52;5.03;;;15.10;99.90;;;;;;5011573;28;20396;-46
2023/08/07 02:29:38;;;;;;;10.77;4.93;;;15.10;99.90;;;;;;5011674;28;20029;-46
2023/08/07 02:32:04;;;;;;;8.50;5.13;;;15.10;99.90;;;;;;5011390;28;20117;-46
2023/08/07 02:34:30;;;;;;;8.00;6.05;;;15.10;99.90;;;;;;5011132;28;20026;-46
2023/08/07 02:36:55;;;;;;;7.10;5.45;;;15.10;99.90;;;;;;5011505;28;20561;-46
2023/08/07 02:39:22;;;;;;;8.15;5.72;;;15.10;99.90;;;;;;5011120;28;20026;-47
2023/08/07 02:41:47;;;;;;;10.38;6.00;;;15.10;99.90;;;;;;4993894;28;20477;-46
2023/08/07 02:44:13;;;;;;;10.48;6.13;;;15.10;99.90;;;;;;5011116;28;20029;-46
2023/08/07 02:46:38;;;;;;;11.68;5.80;;;15.20;99.90;;;;;;5011478;28;20030;-46
2023/08/07 02:49:04;;;;;;;9.70;6.85;;;15.20;99.90;;;;;;5011405;28;20030;-49
2023/08/07 02:51:30;;;;;;;11.25;6.97;;;15.20;99.90;;;;;;5011351;28;20105;-47
2023/08/07 02:53:55;;;;;;;10.40;6.50;;;15.20;99.90;;;;;;5010648;28;20097;-47
2023/08/07 02:56:21;;;;;;;8.15;6.22;;;15.20;99.90;;;;;;5011049;28;20388;-47
2023/08/07 02:58:47;;;;;;;10.25;6.15;;;15.30;99.90;;;;;;5011121;28;20431;-49
2023/08/07 03:01:13;;;;;;;29.48;7.22;;;15.30;99.90;;;;;;5011019;28;20520;-47
2023/08/07 03:03:38;;;;;;;10.93;5.75;;;15.30;99.90;;;;;;4993204;28;20152;-48
2023/08/07 03:06:04;;;;;;;8.35;5.57;;;15.30;99.90;;;;;;5011333;28;20380;-47
2023/08/07 03:08:29;;;;;;;10.30;6.07;;;15.30;99.90;;;;;;5010961;28;20022;-46
2023/08/07 03:10:56;;;;;;;11.07;6.00;;;15.30;99.90;;;;;;5010955;28;20476;-46
2023/08/07 03:13:23;;;;;;;10.00;6.30;;;15.30;99.90;;;;;;5010269;28;20030;-48
2023/08/07 03:15:50;;;;;;;10.77;5.57;;;15.30;99.90;;;;;;5010898;28;20102;-46
2023/08/07 03:18:16;;;;;;;9.95;6.78;;;15.30;99.90;;;;;;5010830;28;20040;-46
2023/08/07 03:20:43;;;;;;;10.55;6.13;;;15.30;99.90;;;;;;5010906;28;20489;-45
2023/08/07 03:23:09;;;;;;;9.88;5.88;;;15.30;99.90;;;;;;4992581;28;20477;-45
2023/08/07 03:25:34;;;;;;;8.10;6.22;;;15.40;99.90;;;;;;5010807;28;20034;-45
2023/08/07 03:28:00;;;;;;;6.95;5.72;;;15.40;99.90;;;;;;5011044;28;20566;-46
2023/08/07 03:30:25;;;;;;;9.43;5.93;;;15.40;99.90;;;;;;4993199;28;20030;-46
2023/08/07 03:32:51;;;;;;;13.77;7.32;;;15.40;99.90;;;;;;5010371;28;20033;-46
2023/08/07 03:35:16;;;;;;;11.02;5.90;;;15.40;99.90;;;;;;5010260;28;20028;-46
2023/08/07 03:37:43;;;;;;;8.57;6.10;;;15.30;99.90;;;;;;5010575;28;20041;-46
2023/08/07 03:40:09;;;;;;;10.63;6.07;;;15.40;99.90;;;;;;5010443;28;20093;-46
2023/08/07 03:42:34;;;;;;;11.80;6.40;;;15.40;99.90;;;;;;5010567;28;20476;-48
2023/08/07 03:45:00;;;;;;;7.18;6.15;;;15.40;99.90;;;;;;5010044;28;20022;-46
2023/08/07 03:47:25;;;;;;;13.70;7.45;;;15.40;99.90;;;;;;4992691;28;20026;-46
2023/08/07 03:49:51;;;;;;;10.93;6.38;;;15.40;99.90;;;;;;4992285;28;20045;-45
2023/08/07 03:52:17;;;;;;;13.98;5.88;;;15.40;99.90;;;;;;5010055;28;20022;-45
2023/08/07 03:54:43;;;;;;;10.20;6.50;;;15.50;99.90;;;;;;5009986;28;20042;-46
2023/08/07 03:57:10;;;;;;;10.27;6.35;;;15.50;99.90;;;;;;5010183;28;20505;-46
2023/08/07 03:59:35;;;;;;;8.93;6.45;;;15.50;99.90;;;;;;5010396;28;20100;-45
2023/08/07 04:02:01;;;;;;;10.43;6.10;;;15.50;99.90;;;;;;5010645;28;20109;-46
2023/08/07 04:04:26;;;;;;;8.38;6.00;;;15.50;99.90;;;;;;4992164;28;20439;-45
2023/08/07 04:06:52;;;;;;;9.55;7.03;;;15.50;99.90;;;;;;5010373;28;20029;-45
2023/08/07 04:09:17;;;;;;;11.30;6.43;;;15.40;99.90;;;;;;5010172;28;20064;-46
2023/08/07 04:11:43;;;;;;;8.90;7.18;;;15.40;99.90;;;;;;4992684;28;20401;-45
2023/08/07 04:14:08;;;;;;;9.88;6.63;;;15.40;99.90;;;;;;5009780;28;20026;-45
2023/08/07 04:16:34;;;;;;;9.77;6.80;;;15.40;99.90;;;;;;5010191;28;20064;-46
2023/08/07 04:18:59;;;;;;;10.93;7.65;;;15.40;99.90;;;;;;4992621;28;20022;-47
2023/08/07 04:21:25;;;;;;;13.07;7.05;;;15.30;99.90;;;;;;5010494;28;20037;-46
2023/08/07 04:23:50;;;;;;;13.55;7.80;;;15.30;99.90;;;;;;4992340;28;20029;-46
2023/08/07 04:26:16;;;;;;;11.27;6.57;;;15.20;99.90;;;;;;4992530;28;20107;-46
2023/08/07 04:28:42;;;;;;;11.93;7.80;;;15.20;99.90;;;;;;5010520;28;20101;-46
2023/08/07 04:31:08;;;;;;;11.70;6.93;;;15.20;99.90;;;;;;5010137;28;20038;-46
2023/08/07 04:33:33;;;;;;;12.77;7.80;;;15.30;99.90;;;;;;4992148;28;20029;-46
2023/08/07 04:35:59;;;;;;;14.02;7.47;;;15.20;99.90;;;;;;5010101;28;20032;-45
2023/08/07 04:38:25;;;;;;;12.10;7.90;;;15.20;99.90;;;;;;5009951;28;20022;-47
2023/08/07 04:40:51;;;;;;;11.57;7.60;;;15.20;99.90;;;;;;5009970;28;20018;-45
2023/08/07 04:43:17;;;;;;;9.80;7.38;;;15.20;99.90;;;;;;4991797;28;20072;-46
2023/08/07 04:45:44;;;;;;;13.23;7.28;;;15.20;99.90;;;;;;5009918;28;20044;-46
2023/08/07 04:48:11;;;;;;;10.52;6.07;;;15.20;99.90;;;;;;5009881;28;20270;-46
2023/08/07 04:50:36;;;;;;;11.75;6.75;;;15.20;99.90;;;;;;4992332;28;20113;-46
2023/08/07 04:53:02;;;;;;;10.65;6.90;;;15.20;99.90;;;;;;5009185;28;20093;-46
2023/08/07 04:55:28;;;;;;;11.88;6.65;;;15.20;99.90;;;;;;5009691;28;20053;-45
2023/08/07 04:57:56;;;;;;;9.77;6.60;;;15.30;99.90;;;;;;4992443;28;20014;-48
2023/08/07 05:00:21;;;;;;;9.57;6.70;;;15.20;99.90;;;;;;5010320;28;20018;-47
2023/08/07 05:02:50;;;;;;;14.25;7.30;;;15.20;99.90;;;;;;5012176;28;20468;-46
2023/08/07 05:05:16;;;;;;;10.82;6.63;;;15.20;99.90;;;;;;4995282;28;20373;-46
2023/08/07 05:07:42;;;;;;;11.05;7.10;;;15.30;99.90;;;;;;5013208;28;20025;-46
2023/08/07 05:10:09;;;;;;;8.40;5.90;;;15.30;99.90;;;;;;5013206;28;20014;-46
2023/08/07 05:12:34;;;;;;;9.57;6.78;;;15.30;99.90;;;;;;5013014;28;20033;-47
2023/08/07 05:15:00;;;;;;;11.65;6.78;;;15.30;99.90;;;;;;5012581;28;20014;-47
2023/08/07 05:17:25;;;;;;;9.85;6.50;;;15.30;99.90;;;;;;5013112;28;20025;-46
2023/08/07 05:19:51;;;;;;;8.18;7.00;;;15.20;99.90;;;;;;5013143;28;20525;-46
2023/08/07 05:22:17;;;;;;;10.50;6.38;;;15.20;99.90;;;;;;5012755;28;20103;-47
2023/08/07 05:24:43;;;;;;;9.07;6.38;;;15.20;99.90;;;;;;5012590;28;20385;-46
2023/08/07 05:27:09;;;;;;;14.65;7.20;;;15.20;99.90;;;;;;5013172;28;20050;-47
2023/08/07 05:29:42;;;;;;;9.70;6.50;;;15.10;99.90;;;;;;5012979;28;20049;-46
2023/08/07 05:32:08;;;;;;;12.25;7.43;;;15.10;99.90;;;;;;5012660;28;20543;-46
2023/08/07 05:34:34;;;;;;;10.75;7.10;;;15.10;99.90;;;;;;5012218;28;20029;-46
2023/08/07 05:36:59;;;;;;;9.48;7.72;;;15.10;99.90;;;;;;5012959;28;20461;-47
2023/08/07 05:39:25;;;;;;;13.77;7.75;;;15.10;99.90;;;;;;5012584;28;20029;-47
2023/08/07 05:41:53;;;;;;;13.55;8.32;;;15.00;99.90;;;;;;5012774;28;20029;-48
2023/08/07 05:44:19;;;;;;;8.90;7.28;;;15.10;99.90;;;;;;5011902;28;20198;-47
2023/08/07 05:46:44;;;;;;;12.18;7.20;;;15.10;99.90;;;;;;5012620;28;20022;-47
2023/08/07 05:49:10;;;;;;;11.48;7.63;;;15.10;99.90;;;;;;5012621;28;20018;-47
2023/08/07 05:51:35;;;;;;;10.88;6.78;;;15.10;99.90;;;;;;5012196;28;20026;-46
2023/08/07 05:54:01;;;;;;;10.20;6.57;;;15.20;99.90;;;;;;5011840;28;20030;-46
2023/08/07 05:56:26;;;;;;;9.48;6.75;;;15.20;99.90;;;;;;5012228;28;20058;-46
2023/08/07 05:58:52;;;;;;;7.45;6.38;;;15.20;99.90;;;;;;4994523;28;20350;-47
2023/08/07 06:01:17;;;;;;;9.10;6.88;;;15.30;99.90;;;;;;5012220;28;20104;-45
2023/08/07 06:03:43;;;;;;;10.10;6.95;;;15.30;99.90;;;;;;4994081;28;20077;-48
2023/08/07 06:06:08;;;;;;;9.82;6.57;;;15.30;99.90;;;;;;5012026;28;20095;-49
2023/08/07 06:08:34;;;;;;;9.55;6.05;;;15.30;99.90;;;;;;5012058;28;20105;-47
2023/08/07 06:11:03;;;;;;;9.95;7.32;;;15.40;99.90;;;;;;5012030;28;20441;-49
2023/08/07 06:13:29;;;;;;;12.35;7.25;;;15.40;99.90;;;;;;5010598;28;20484;-47
2023/08/07 06:15:54;;;;;;;9.38;6.35;;;15.40;99.90;;;;;;5011956;28;20040;-46
2023/08/07 06:18:20;;;;;;;8.63;6.18;;;15.40;99.90;;;;;;5011838;28;20010;-49
2023/08/07 06:20:46;;;;;;;12.95;6.53;;;15.40;99.90;;;;;;4994293;28;20152;-46
2023/08/07 06:23:12;;;;;;;6.90;5.50;;;15.40;99.90;;;;;;5011656;28;20053;-47
2023/08/07 06:25:37;;;;;;;9.68;6.50;;;15.30;99.90;;;;;;5011861;28;20066;-48
2023/08/07 06:28:03;;;;;;;11.73;5.07;;;15.40;99.90;;;;;;5012097;28;20029;-48
2023/08/07 06:30:30;;;;;;;7.53;5.18;;;15.30;99.90;;;;;;5011639;28;20022;-46
2023/08/07 06:32:56;;;;;;;8.65;4.45;;;15.30;99.90;;;;;;5011360;28;20065;-46
2023/08/07 06:35:22;;;;;;;6.30;4.57;;;15.30;99.90;;;;;;5011179;28;20429;-46
2023/08/07 06:37:47;;;;;;;7.35;3.80;;;15.20;99.90;;;;;;5011786;28;20036;-46
2023/08/07 06:40:13;;;;;;;5.22;3.80;;;15.20;99.90;;;;;;5011505;28;20026;-47
2023/08/07 06:42:38;;;;;;;6.60;3.72;;;15.20;99.90;;;;;;5011093;28;20100;-46
2023/08/07 06:45:04;;;;;;;6.80;3.90;;;15.10;99.90;;;;;;5011209;28;20037;-45
2023/08/07 06:47:30;;;;;;;5.00;3.35;;;15.10;99.90;;;;;;4993778;28;20022;-47
2023/08/07 06:49:55;;;;;;;3.42;3.13;;;15.10;99.90;;;;;;5011405;28;20025;-46
2023/08/07 06:52:21;;;;;;;7.93;3.58;;;15.10;99.90;;;;;;5011340;28;20022;-47
2023/08/07 06:54:46;;;;;;;3.30;2.90;;;15.10;99.90;;;;;;5010906;28;20040;-46
2023/08/07 06:57:12;;;;;;;7.15;3.40;;;15.10;99.90;;;;;;5011172;28;20030;-48
2023/08/07 06:59:38;;;;;;;4.22;2.90;;;15.10;99.90;;;;;;5011095;28;20033;-47
2023/08/07 07:02:04;;;;;;;5.13;2.38;;;15.10;99.90;;;;;;5011151;28;20483;-48
2023/08/07 07:04:29;;;;;;;4.05;2.13;;;15.10;99.90;;;;;;5010527;28;20026;-46
2023/08/07 07:06:55;;;;;;;3.05;2.13;;;15.10;99.90;;;;;;4993491;28;20053;-46
2023/08/07 07:09:21;;;;;;;2.40;2.13;;;15.10;99.90;;;;;;5010985;28;20033;-47
2023/08/07 07:11:46;;;;;;;2.90;2.10;;;15.10;99.90;;;;;;5011263;28;20083;-47
2023/08/07 07:14:12;;;;;;;4.22;1.70;;;15.20;99.90;;;;;;5010447;28;20121;-47
2023/08/07 07:16:37;;;;;;;5.30;2.50;;;15.20;99.90;;;;;;5010489;28;20083;-47
2023/08/07 07:19:03;;;;;;;3.40;1.77;;;15.20;99.90;;;;;;5010740;28;20099;-47
2023/08/07 07:21:29;;;;;;;4.40;2.30;;;15.30;99.90;;;;;;5010748;28;20031;-46
2023/08/07 07:23:55;;;;;;;6.35;2.65;;;15.30;99.90;;;;;;5010305;28;20021;-46
2023/08/07 07:26:20;;;;;;;4.00;2.47;;;15.30;99.90;;;;;;5018841;28;20503;-48
2023/08/07 07:28:46;;;;;;;3.15;2.75;;;15.20;99.90;;;;;;5010751;28;20025;-47
2023/08/07 07:31:11;;;;;;;5.22;3.03;;;15.20;99.90;;;;;;5010697;28;20036;-47
2023/08/07 07:33:39;;;;;;;7.07;3.45;;;15.30;99.90;;;;;;5010322;28;20300;-48
2023/08/07 07:36:05;;;;;;;6.57;3.63;;;15.30;99.90;;;;;;5010886;28;20036;-46
2023/08/07 07:38:31;;;;;;;7.28;4.25;;;15.30;99.90;;;;;;5010898;28;20022;-47
2023/08/07 07:40:57;;;;;;;5.97;4.00;;;15.40;99.90;;;;;;5010883;28;20022;-47
2023/08/07 07:43:23;;;;;;;7.45;4.18;;;15.50;99.90;;;;;;5010211;28;20018;-47
2023/08/07 07:45:49;;;;;;;5.30;3.83;;;15.70;99.90;;;;;;4993228;28;20453;-47
2023/08/07 07:48:14;;;;;;;4.65;3.10;;;15.70;99.90;;;;;;5010786;28;20034;-47
2023/08/07 07:50:41;;;;;;;6.88;4.07;;;15.80;99.90;;;;;;5010776;28;20025;-47
2023/08/07 07:53:06;;;;;;;7.47;3.60;;;15.90;99.90;;;;;;5010237;28;20109;-49
2023/08/07 07:55:34;;;;;;;7.30;3.47;;;16.20;99.90;;;;;;5010617;28;20113;-44
2023/08/07 07:57:59;;;;;;;6.00;3.17;;;16.50;99.90;;;;;;5010832;28;20396;-46
2023/08/07 08:00:28;;;;;;;5.85;3.35;;;16.70;99.90;;;;;;5010352;28;20048;-46
2023/08/07 08:02:53;;;;;;;6.55;3.05;;;16.80;99.90;;;;;;4992390;28;20053;-46
2023/08/07 08:05:19;;;;;;;5.43;3.53;;;17.00;99.90;;;;;;5010052;28;20052;-45
2023/08/07 08:07:45;;;;;;;7.47;3.63;;;17.10;99.90;;;;;;5010298;28;20420;-45
2023/08/07 08:10:10;;;;;;;6.10;3.08;;;17.10;99.90;;;;;;5010256;28;20010;-46
2023/08/07 08:12:36;;;;;;;8.05;3.45;;;17.10;99.90;;;;;;5010104;28;20069;-47
2023/08/07 08:15:03;;;;;;;4.95;3.00;;;17.10;99.90;;;;;;4992326;28;20018;-46
2023/08/07 08:17:28;;;;;;;6.43;3.33;;;17.00;99.90;;;;;;5009965;28;20033;-46
2023/08/07 08:19:54;;;;;;;4.35;2.80;;;16.80;99.90;;;;;;4992498;28;20459;-46
2023/08/07 08:22:20;;;;;;;5.80;3.00;;;16.80;99.90;;;;;;4992544;28;20385;-48
2023/08/07 08:24:47;;;;;;;7.40;3.03;;;16.70;99.90;;;;;;5009600;28;20396;-48
2023/08/07 08:27:13;;;;;;;6.43;3.53;;;16.60;99.90;;;;;;5010578;28;20033;-45
2023/08/07 08:29:38;;;;;;;5.35;3.35;;;16.60;99.90;;;;;;5010035;28;20026;-46
2023/08/07 08:32:04;;;;;;;6.25;3.35;;;16.60;99.90;;;;;;5009992;28;20042;-46
2023/08/07 08:34:30;;;;;;;6.03;2.80;;;16.60;99.90;;;;;;5009626;28;20062;-46
2023/08/07 08:36:55;;;;;;;9.95;3.53;;;16.70;99.90;;;;;;5011662;28;20026;-47
2023/08/07 08:39:20;;;;;;;5.75;2.85;;;16.80;99.90;;;;;;5014296;28;20018;-48
2023/08/07 08:41:50;;;;;;;8.70;2.67;;;17.00;99.90;;;;;;5013804;28;20030;-47
2023/08/07 08:44:19;;;;;;;4.60;2.83;;;17.10;99.90;;;;;;5013633;28;20061;-48
2023/08/07 08:46:47;;;;;;;4.30;2.83;;;17.20;99.90;;;;;;5013596;28;20022;-48
2023/08/07 08:49:19;;;;;;;4.75;2.60;;;17.20;99.90;;;;;;4995932;28;20557;-48
2023/08/07 08:51:46;;;;;;;4.35;2.80;;;17.20;99.90;;;;;;4995850;28;20113;-47
2023/08/07 08:54:13;;;;;;;4.13;2.22;;;17.20;99.90;;;;;;5013156;28;20064;-47
2023/08/07 08:56:39;;;;;;;8.98;2.65;;;17.20;99.90;;;;;;5013337;28;20125;-47
2023/08/07 08:59:04;;;;;;;6.20;2.47;;;17.20;99.90;;;;;;4995711;28;20056;-45
2023/08/07 09:01:31;;;;;;;6.80;2.40;;;17.10;99.90;;;;;;5013404;28;20030;-48
2023/08/07 09:03:57;;;;;;;5.57;2.72;;;17.00;99.90;;;;;;4995380;28;20074;-46
2023/08/07 09:06:23;;;;;;;5.82;2.88;;;17.60;99.90;;;;;;4995727;28;20029;-46
2023/08/07 09:08:50;;;;;;;3.88;2.05;;;18.50;99.90;;;;;;4995548;28;20066;-48
2023/08/07 09:11:17;;;;;;;5.30;3.05;;;19.50;99.90;;;;;;5013341;28;20022;-48
2023/08/07 09:13:47;;;;;;;3.30;2.22;;;20.30;99.90;;;;;;5012503;28;20026;-49
2023/08/07 09:16:14;;;;;;;5.90;2.53;;;20.90;99.90;;;;;;5013329;28;20400;-49
2023/08/07 09:18:40;;;;;;;4.55;2.28;;;21.30;99.90;;;;;;5013065;28;20050;-46
2023/08/07 09:21:05;;;;;;;3.45;2.03;;;21.10;99.90;;;;;;5012893;28;20405;-49
2023/08/07 09:23:31;;;;;;;5.53;2.20;;;21.40;99.90;;;;;;5012339;28;20385;-46
2023/08/07 09:26:01;;;;;;;5.50;2.10;;;21.20;99.90;;;;;;5012899;28;20048;-47
2023/08/07 09:28:28;;;;;;;6.63;1.80;;;20.60;99.90;;;;;;4995211;28;20389;-46
2023/08/07 09:30:54;;;;;;;4.50;1.77;;;20.40;99.90;;;;;;4995005;28;20034;-48
2023/08/07 09:33:26;;;;;;;5.75;2.28;;;20.00;99.90;;;;;;5012321;28;20152;-47
2023/08/07 09:35:52;;;;;;;5.80;2.00;;;19.40;99.90;;;;;;5012778;28;20022;-48
2023/08/07 09:38:17;;;;;;;4.18;2.00;;;19.10;99.90;;;;;;5012741;28;20036;-47
2023/08/07 09:40:43;;;;;;;7.35;2.33;;;18.60;99.90;;;;;;5012702;28;20026;-47
2023/08/07 09:43:10;;;;;;;5.18;2.47;;;18.20;99.90;;;;;;5012424;28;20148;-48
2023/08/07 09:45:39;;;;;;;5.97;2.22;;;17.80;99.90;;;;;;5012640;28;20018;-46
2023/08/07 09:48:11;;;;;;;4.75;2.78;;;17.60;99.90;;;;;;5011533;28;20028;-48
2023/08/07 09:50:36;;;;;;;4.75;2.33;;;17.60;99.90;;;;;;5012571;28;20208;-46
2023/08/07 09:53:02;;;;;;;7.55;2.67;;;17.90;99.90;;;;;;4994433;28;20033;-47
2023/08/07 09:55:28;;;;;;;5.82;2.38;;;18.30;99.90;;;;;;4994382;28;20025;-48
2023/08/07 09:57:54;;;;;;;3.88;1.73;;;18.50;99.90;;;;;;5012263;28;20020;-48
2023/08/07 10:00:20;;;;;;;4.50;2.47;;;18.70;99.90;;;;;;5012375;28;20370;-47
2023/08/07 10:02:47;;;;;;;5.95;1.90;;;18.60;99.90;;;;;;5012355;28;20120;-46
2023/08/07 10:05:13;;;;;;;4.97;1.85;;;18.50;99.90;;;;;;5012009;28;20044;-49
2023/08/07 10:07:39;;;;;;;6.43;2.30;;;18.60;99.90;;;;;;5011909;28;20096;-51
2023/08/07 10:10:06;;;;;;;5.68;1.95;;;19.50;99.90;;;;;;5012123;28;20018;-46
2023/08/07 10:12:32;;;;;;;6.32;2.15;;;20.60;99.90;;;;;;4994490;28;20025;-47
2023/08/07 10:14:59;;;;;;;7.88;2.67;;;22.10;99.90;;;;;;5011543;28;20149;-47
2023/08/07 10:17:25;;;;;;;6.25;2.28;;;23.50;99.90;;;;;;5011794;28;20496;-48
2023/08/07 10:19:51;;;;;;;8.38;2.90;;;23.90;99.60;;;;;;4994168;28;20029;-50
2023/08/07 10:22:19;;;;;;;7.90;2.70;;;23.80;97.30;;;;;;5011696;28;20116;-48
2023/08/07 10:24:48;;;;;;;6.10;2.20;;;23.80;98.30;;;;;;4993752;28;20022;-49
2023/08/07 10:27:16;;;;;;;7.53;2.70;;;24.30;97.80;;;;;;5012148;28;20444;-48
2023/08/07 10:29:43;;;;;;;7.15;2.70;;;25.00;95.70;;;;;;5011717;28;20389;-47
2023/08/07 10:32:10;;;;;;;7.03;2.47;;;25.60;94.60;;;;;;5011497;28;20066;-47
2023/08/07 10:34:37;;;;;;;5.75;2.28;;;25.80;94.50;;;;;;5011006;28;20104;-47
2023/08/07 10:37:06;;;;;;;6.32;2.20;;;25.70;93.80;;;;;;5011485;28;20515;-48
2023/08/07 10:39:32;;;;;;;7.30;3.03;;;24.50;94.10;;;;;;4994010;28;20026;-49
2023/08/07 10:41:58;;;;;;;8.00;2.58;;;23.60;95.80;;;;;;5011482;28;20060;-48
2023/08/07 10:44:25;;;;;;;7.90;2.58;;;23.00;96.90;;;;;;5010981;28;20029;-49
2023/08/07 10:46:53;;;;;;;8.05;2.80;;;22.00;97.50;;;;;;4993802;28;20026;-46
2023/08/07 10:49:35;;;;;;;9.60;2.45;;;21.30;99.10;;;;;;5011320;28;20401;-48
2023/08/07 10:52:22;;;;;;;5.75;2.22;;;21.30;99.00;;;;;;5011544;28;20022;-48
2023/08/07 10:54:49;;;;;;;7.22;2.53;;;22.00;99.30;;;;;;5010939;28;20393;-47
2023/08/07 10:57:17;;;;;;;6.75;2.28;;;22.90;98.30;;;;;;5011164;28;20331;-48
2023/08/07 10:59:59;;;;;;;7.82;2.40;;;23.20;96.90;;;;;;4993140;28;20393;-45
2023/08/07 11:02:26;;;;;;;7.70;2.40;;;22.90;97.00;;;;;;5011116;28;20029;-45
2023/08/07 11:04:52;;;;;;;5.75;2.40;;;22.30;96.90;;;;;;5010492;28;20018;-47
2023/08/07 11:07:26;;;;;;;7.57;2.60;;;22.00;97.60;;;;;;5010897;28;20032;-46
2023/08/07 11:09:56;;;;;;;8.02;2.60;;;21.50;99.00;;;;;;4993322;28;20033;-47
2023/08/07 11:12:25;;;;;;;5.90;2.60;;;21.20;98.60;;;;;;5010833;28;20053;-49
2023/08/07 11:14:52;;;;;;;7.97;1.80;;;21.70;98.90;;;;;;5010587;28;20022;-47
2023/08/07 11:17:18;;;;;;;5.32;2.17;;;22.30;97.90;;;;;;5011065;28;20691;-48
2023/08/07 11:19:43;;;;;;;6.90;2.15;;;22.30;96.70;;;;;;5010911;28;20030;-47
2023/08/07 11:22:09;;;;;;;7.45;2.10;;;21.90;95.50;;;;;;4993154;28;20018;-48
2023/08/07 11:24:35;;;;;;;10.20;2.50;;;21.10;96.00;;;;;;5010254;28;20429;-47
2023/08/07 11:27:01;;;;;;;8.70;2.28;;;20.50;98.20;;;;;;4993128;28;20064;-47
2023/08/07 11:29:26;;;;;;;7.35;2.20;;;19.80;99.90;;;;;;5010787;28;20030;-47
2023/08/07 11:31:52;;;;;;;8.05;2.42;;;19.30;99.90;;;;;;5010521;28;20045;-47
2023/08/07 11:34:18;;;;;;;10.05;2.50;;;18.80;99.90;;;;;;5010573;28;20025;-47
2023/08/07 11:36:44;;;;;;;8.07;2.72;;;18.40;99.90;;;;;;5010549;28;20018;-46
2023/08/07 11:39:11;;;;;;;6.63;2.47;;;18.00;99.90;;;;;;4993045;28;20114;-48
2023/08/07 11:41:36;;;;;;;9.93;2.60;;;17.60;99.90;;;;;;5011009;28;20022;-49
2023/08/07 11:44:02;;;;;;;14.65;2.75;;;17.10;99.90;;;;;;5010438;28;20080;-47
2023/08/07 11:46:28;;;;;;;12.52;2.70;;;17.00;99.90;;;;;;5010903;28;20104;-50
2023/08/07 11:48:56;;;;;;;10.32;2.80;;;16.70;99.90;;;;;;5010961;28;20029;-46
2023/08/07 11:51:22;;;;;;;8.00;2.88;;;16.90;99.90;;;;;;5010966;28;20477;-47
2023/08/07 11:53:48;;;;;;;11.35;2.58;;;17.20;99.90;;;;;;4992383;28;20026;-49
2023/08/07 11:56:14;;;;;;;12.00;2.92;;;17.80;99.90;;;;;;5010342;28;20026;-49
2023/08/07 11:58:42;;;;;;;5.82;2.25;;;17.90;99.90;;;;;;5010500;28;20404;-48
2023/08/07 12:01:15;;;;;;;8.75;2.75;;;17.70;99.90;;;;;;5010366;28;20510;-50
2023/08/07 12:03:50;;;;;;;12.65;3.08;;;17.80;99.90;;;;;;5009920;28;20026;-50
2023/08/07 12:06:15;;;;;;;9.00;3.13;;;18.10;99.90;;;;;;5010394;28;20094;-47
2023/08/07 12:08:41;;;;;;;6.32;2.60;;;18.60;99.90;;;;;;5010189;28;20149;-48
2023/08/07 12:11:09;;;;;;;7.22;2.15;;;19.70;99.90;;;;;;4992695;28;20495;-46
2023/08/07 12:13:41;;;;;;;11.75;3.03;;;20.80;99.90;;;;;;5013754;28;20348;-49
2023/08/07 12:16:08;;;;;;;10.82;2.55;;;21.30;99.90;;;;;;5013940;28;20108;-49
2023/08/07 12:18:35;;;;;;;8.00;2.92;;;21.30;99.90;;;;;;5014015;28;20022;-46
2023/08/07 12:21:06;;;;;;;16.55;2.90;;;21.20;99.90;;;;;;5013949;28;20018;-47
2023/08/07 12:23:35;;;;;;;9.40;3.05;;;21.20;99.90;;;;;;5013581;28;20121;-47
2023/08/07 12:26:02;;;;;;;7.23;2.90;;;21.60;99.90;;;;;;4996501;28;20018;-48
2023/08/07 12:28:27;;;;;;;11.35;2.97;;;22.00;99.40;;;;;;5014034;28;20434;-47
2023/08/07 12:30:53;;;;;;;8.23;2.97;;;22.00;98.10;;;;;;5013839;28;20109;-46
2023/08/07 12:33:19;;;;;;;11.00;3.08;;;21.50;98.50;;;;;;5013479;28;20101;-46
2023/08/07 12:35:44;;;;;;;9.68;2.70;;;20.90;99.30;;;;;;5013566;28;20065;-45
2023/08/07 12:38:11;;;;;;;5.32;2.33;;;20.50;99.90;;;;;;4996209;28;20013;-46
2023/08/07 12:40:37;;;;;;;5.85;2.50;;;20.10;99.90;;;;;;5013746;28;20352;-46